This is the latest recevied weather packets stored in our database for station/object Waldburg. If no packets are shown the sender has not sent any weather packets the latest 10 day(s).
| Time | Temp. | Humidity | Pressure | Rain* | Wind** | Luminosity | Snow |
|---|---|---|---|---|---|---|---|
| 1777737733 | 23.89° C | 31% | 1015.9 hPa | 0 mm | - | - | - |
| 1777735931 | 24.44° C | 30% | 1016.1 hPa | 0 mm | - | - | - |
| 1777734130 | 24.44° C | 31% | 1016.5 hPa | 0 mm | - | - | - |
| 1777732330 | 24.44° C | 30% | 1016.9 hPa | 0 mm | - | - | - |
| 1777730530 | 24.44° C | 30% | 1017.3 hPa | 0 mm | - | - | - |
| 1777728731 | 23.89° C | 31% | 1017.7 hPa | 0 mm | - | - | - |
| 1777726930 | 24.44° C | 29% | 1017.9 hPa | 0 mm | - | - | - |
| 1777725131 | 23.89° C | 31% | 1018.5 hPa | 0 mm | - | - | - |
| 1777723330 | 23.33° C | 34% | 1018.8 hPa | 0 mm | - | - | - |
| 1777721531 | 22.78° C | 39% | 1019.2 hPa | 0 mm | - | - | - |
| 1777719731 | 22.22° C | 40% | 1019.7 hPa | 0 mm | - | - | - |
| 1777717930 | 22.22° C | 41% | 1020.1 hPa | 0 mm | - | - | - |
| 1777716131 | 21.11° C | 45% | 1020.6 hPa | 0 mm | - | - | - |
| 1777714331 | 19.44° C | 46% | 1020.8 hPa | 0 mm | - | - | - |
| 1777712531 | 19.44° C | 47% | 1021.1 hPa | 0 mm | - | - | - |
| 1777710731 | 18.33° C | 52% | 1021.2 hPa | 0 mm | - | - | - |
| 1777708931 | 16.67° C | 53% | 1021.5 hPa | 0 mm | - | - | - |
| 1777707131 | 15.56° C | 56% | 1021.6 hPa | 0 mm | - | - | - |
| 1777705333 | 13.89° C | 62% | 1021.5 hPa | 0 mm | - | - | - |
| 1777703532 | 12.22° C | 65% | 1021.4 hPa | 0 mm | - | - | - |
| 1777701731 | 11.11° C | 67% | 1021.4 hPa | 0 mm | - | - | - |
| 1777699931 | 10° C | 69% | 1021.3 hPa | 0 mm | - | - | - |
| 1777698131 | 9.44° C | 69% | 1021.3 hPa | 0 mm | - | - | - |
| 1777696331 | 9.44° C | 68% | 1021.1 hPa | 0 mm | - | - | - |
| 1777694533 | 9.44° C | 65% | 1021.1 hPa | 0 mm | - | - | - |
* Rain since midnight (hover to see other rain measurements)
** Current wind speed in m/s (hover to see current wind gust speed)